sensor_id;sensor_type;location;lat;lon;timestamp;pressure;altitude;pressure_sealevel;temperature;humidity
76046;BME280;64741;41.730;44.788;2023-07-29T00:00:50;986.8;;;29.5;36.2
76046;BME280;64741;41.730;44.788;2023-07-29T00:05:51;986.7;;;29.6;36.2
76046;BME280;64741;41.730;44.788;2023-07-29T00:10:51;986.6;;;29.6;36.2
76046;BME280;64741;41.730;44.788;2023-07-29T00:15:56;986.6;;;29.6;36.3
76046;BME280;64741;41.730;44.788;2023-07-29T00:20:47;986.7;;;29.7;36.3
76046;BME280;64741;41.730;44.788;2023-07-29T00:25:55;986.7;;;29.7;36.3
76046;BME280;64741;41.730;44.788;2023-07-29T00:30:56;986.6;;;29.7;36.4
76046;BME280;64741;41.730;44.788;2023-07-29T00:35:48;986.7;;;29.7;36.3
76046;BME280;64741;41.730;44.788;2023-07-29T00:40:48;986.8;;;29.8;36.3
76046;BME280;64741;41.730;44.788;2023-07-29T00:45:50;986.9;;;29.8;36.4
76046;BME280;64741;41.730;44.788;2023-07-29T00:50:54;986.9;;;29.8;36.5
76046;BME280;64741;41.730;44.788;2023-07-29T00:55:50;986.8;;;29.8;36.5
76046;BME280;64741;41.730;44.788;2023-07-29T01:00:52;986.9;;;29.9;36.5
76046;BME280;64741;41.730;44.788;2023-07-29T01:05:44;986.9;;;29.9;36.5
76046;BME280;64741;41.730;44.788;2023-07-29T01:10:58;986.9;;;29.9;36.5
76046;BME280;64741;41.730;44.788;2023-07-29T01:15:52;987;;;29.9;36.6
76046;BME280;64741;41.730;44.788;2023-07-29T01:20:50;987;;;29.9;36.6
76046;BME280;64741;41.730;44.788;2023-07-29T01:25:48;987;;;30;36.3
76046;BME280;64741;41.730;44.788;2023-07-29T01:30:51;987.1;;;30;36.2
76046;BME280;64741;41.730;44.788;2023-07-29T01:35:54;987.2;;;30;36.2
76046;BME280;64741;41.730;44.788;2023-07-29T01:40:32;987.3;;;30;36.2
76046;BME280;64741;41.730;44.788;2023-07-29T01:45:52;987.4;;;30;36.2
76046;BME280;64741;41.730;44.788;2023-07-29T01:50:48;987.4;;;30.1;36.2
76046;BME280;64741;41.730;44.788;2023-07-29T01:55:50;987.3;;;30.1;36
76046;BME280;64741;41.730;44.788;2023-07-29T02:00:56;987.3;;;30.1;35.8
76046;BME280;64741;41.730;44.788;2023-07-29T02:05:50;987.3;;;30.1;35.6
76046;BME280;64741;41.730;44.788;2023-07-29T02:10:26;987.2;;;30.1;35.5
76046;BME280;64741;41.730;44.788;2023-07-29T02:15:50;987.3;;;30.1;35.5
76046;BME280;64741;41.730;44.788;2023-07-29T02:20:50;987.2;;;30.1;35.5
76046;BME280;64741;41.730;44.788;2023-07-29T02:25:50;987.3;;;30.1;35.6
76046;BME280;64741;41.730;44.788;2023-07-29T02:30:54;987.3;;;30.1;35.5
76046;BME280;64741;41.730;44.788;2023-07-29T02:35:52;987.4;;;30.1;35.5
76046;BME280;64741;41.730;44.788;2023-07-29T02:40:38;987.4;;;30.1;35.4
76046;BME280;64741;41.730;44.788;2023-07-29T02:45:56;987.4;;;30.2;35.3
76046;BME280;64741;41.730;44.788;2023-07-29T02:50:50;987.4;;;30.2;35.5
76046;BME280;64741;41.730;44.788;2023-07-29T02:55:52;987.4;;;30.2;35.6
76046;BME280;64741;41.730;44.788;2023-07-29T03:01:00;987.4;;;30.2;35.7
76046;BME280;64741;41.730;44.788;2023-07-29T03:05:58;987.4;;;30.2;35.7
76046;BME280;64741;41.730;44.788;2023-07-29T03:10:50;987.5;;;30.2;35.7
76046;BME280;64741;41.730;44.788;2023-07-29T03:15:50;987.6;;;30.2;35.7
76046;BME280;64741;41.730;44.788;2023-07-29T03:20:55;987.6;;;30.2;35.8
76046;BME280;64741;41.730;44.788;2023-07-29T03:25:50;987.5;;;30.3;35.8
76046;BME280;64741;41.730;44.788;2023-07-29T03:30:52;987.6;;;30.3;36.1
76046;BME280;64741;41.730;44.788;2023-07-29T03:35:48;987.5;;;30.3;36.1
76046;BME280;64741;41.730;44.788;2023-07-29T03:40:52;987.5;;;30.3;36.1
76046;BME280;64741;41.730;44.788;2023-07-29T03:45:56;987.4;;;30.3;35.8
76046;BME280;64741;41.730;44.788;2023-07-29T03:50:52;987.5;;;30.3;35.6
76046;BME280;64741;41.730;44.788;2023-07-29T03:55:56;987.4;;;30.3;35.6
76046;BME280;64741;41.730;44.788;2023-07-29T04:00:50;987.4;;;30.3;35.6
76046;BME280;64741;41.730;44.788;2023-07-29T04:05:56;987.4;;;30.3;35.6
76046;BME280;64741;41.730;44.788;2023-07-29T04:10:50;987.3;;;30.3;35.6
76046;BME280;64741;41.730;44.788;2023-07-29T04:15:52;987.2;;;30.3;35.6
76046;BME280;64741;41.730;44.788;2023-07-29T04:20:50;987.1;;;30.4;35.5
76046;BME280;64741;41.730;44.788;2023-07-29T04:25:24;987.1;;;30.4;35.6
76046;BME280;64741;41.730;44.788;2023-07-29T04:30:52;987.1;;;30.4;35.4
76046;BME280;64741;41.730;44.788;2023-07-29T04:35:52;987.2;;;30.4;35.5
76046;BME280;64741;41.730;44.788;2023-07-29T04:40:56;987.3;;;30.4;35.4
76046;BME280;64741;41.730;44.788;2023-07-29T04:45:50;987.3;;;30.4;35.5
76046;BME280;64741;41.730;44.788;2023-07-29T04:50:56;987.3;;;30.4;35.3
76046;BME280;64741;41.730;44.788;2023-07-29T04:55:56;987.2;;;30.4;35
76046;BME280;64741;41.730;44.788;2023-07-29T05:00:50;987.1;;;30.4;34.5
76046;BME280;64741;41.730;44.788;2023-07-29T05:05:50;987.1;;;30.4;34.4
76046;BME280;64741;41.730;44.788;2023-07-29T05:10:52;987.1;;;30.4;34.1
76046;BME280;64741;41.730;44.788;2023-07-29T05:15:56;987.1;;;30.3;34.1
76046;BME280;64741;41.730;44.788;2023-07-29T05:20:50;987.1;;;30.3;34.1
76046;BME280;64741;41.730;44.788;2023-07-29T05:25:18;987.1;;;30.3;34
76046;BME280;64741;41.730;44.788;2023-07-29T05:30:54;987;;;30.3;34.1
76046;BME280;64741;41.730;44.788;2023-07-29T05:35:56;987.1;;;30.3;34.1
76046;BME280;64741;41.730;44.788;2023-07-29T05:40:50;987;;;30.3;33.9
76046;BME280;64741;41.730;44.788;2023-07-29T05:45:44;987;;;30.3;33.8
76046;BME280;64741;41.730;44.788;2023-07-29T05:50:50;987;;;30.3;33.8
76046;BME280;64741;41.730;44.788;2023-07-29T05:55:50;986.9;;;30.3;33.8
76046;BME280;64741;41.730;44.788;2023-07-29T06:00:52;987;;;30.3;34
76046;BME280;64741;41.730;44.788;2023-07-29T06:05:48;986.9;;;30.3;34.1
76046;BME280;64741;41.730;44.788;2023-07-29T06:10:52;987;;;30.4;33.8
76046;BME280;64741;41.730;44.788;2023-07-29T06:15:50;987;;;30.4;33.5
76046;BME280;64741;41.730;44.788;2023-07-29T06:20:48;986.9;;;30.4;33.5
76046;BME280;64741;41.730;44.788;2023-07-29T06:25:56;986.9;;;30.4;33.4
76046;BME280;64741;41.730;44.788;2023-07-29T06:30:50;987;;;30.4;33.3
76046;BME280;64741;41.730;44.788;2023-07-29T06:35:56;987;;;30.4;33.1
76046;BME280;64741;41.730;44.788;2023-07-29T06:40:50;987;;;30.4;33.1
76046;BME280;64741;41.730;44.788;2023-07-29T06:45:36;987;;;30.4;33.3
76046;BME280;64741;41.730;44.788;2023-07-29T06:50:54;987;;;30.4;33.6
76046;BME280;64741;41.730;44.788;2023-07-29T06:55:50;987;;;30.4;33.6
76046;BME280;64741;41.730;44.788;2023-07-29T07:00:34;987;;;30.4;33.8
76046;BME280;64741;41.730;44.788;2023-07-29T07:05:12;986.9;;;30.4;34
76046;BME280;64741;41.730;44.788;2023-07-29T07:10:52;986.9;;;30.4;34.5
76046;BME280;64741;41.730;44.788;2023-07-29T07:15:48;986.9;;;30.4;34.8
76046;BME280;64741;41.730;44.788;2023-07-29T07:20:52;986.8;;;30.5;35.1
76046;BME280;64741;41.730;44.788;2023-07-29T07:25:56;986.8;;;30.5;35.2
76046;BME280;64741;41.730;44.788;2023-07-29T07:30:56;986.7;;;30.5;35.2
76046;BME280;64741;41.730;44.788;2023-07-29T07:35:42;986.7;;;30.5;35.3
76046;BME280;64741;41.730;44.788;2023-07-29T07:40:53;986.6;;;30.6;35.9
76046;BME280;64741;41.730;44.788;2023-07-29T07:45:57;986.6;;;30.6;36.2
76046;BME280;64741;41.730;44.788;2023-07-29T07:50:48;986.5;;;30.6;35.9
76046;BME280;64741;41.730;44.788;2023-07-29T07:55:52;986.4;;;30.6;35.5
76046;BME280;64741;41.730;44.788;2023-07-29T08:00:48;986.4;;;30.6;35.2
76046;BME280;64741;41.730;44.788;2023-07-29T08:05:52;986.4;;;30.6;34.9
76046;BME280;64741;41.730;44.788;2023-07-29T08:10:54;986.3;;;30.6;34.6
76046;BME280;64741;41.730;44.788;2023-07-29T08:15:52;986.1;;;30.7;34
76046;BME280;64741;41.730;44.788;2023-07-29T08:20:50;986.1;;;30.7;33.6
76046;BME280;64741;41.730;44.788;2023-07-29T08:25:52;986.1;;;30.6;33.7
76046;BME280;64741;41.730;44.788;2023-07-29T08:30:54;986;;;30.7;33.6
76046;BME280;64741;41.730;44.788;2023-07-29T08:35:48;985.9;;;30.7;33.4
76046;BME280;64741;41.730;44.788;2023-07-29T08:40:52;985.8;;;30.7;32.9
76046;BME280;64741;41.730;44.788;2023-07-29T08:45:48;985.8;;;30.7;32.8
76046;BME280;64741;41.730;44.788;2023-07-29T08:50:48;985.8;;;30.7;32.6
76046;BME280;64741;41.730;44.788;2023-07-29T08:55:52;985.8;;;30.7;32.3
76046;BME280;64741;41.730;44.788;2023-07-29T09:00:52;985.6;;;30.7;32.1
76046;BME280;64741;41.730;44.788;2023-07-29T09:05:54;985.6;;;30.7;32
76046;BME280;64741;41.730;44.788;2023-07-29T09:10:48;985.6;;;30.7;32
76046;BME280;64741;41.730;44.788;2023-07-29T09:15:54;985.6;;;30.7;31.8
76046;BME280;64741;41.730;44.788;2023-07-29T09:20:59;985.5;;;30.7;31.6
76046;BME280;64741;41.730;44.788;2023-07-29T09:25:48;985.5;;;30.7;31.5
76046;BME280;64741;41.730;44.788;2023-07-29T09:30:48;985.4;;;30.7;31.2
76046;BME280;64741;41.730;44.788;2023-07-29T09:35:52;985.4;;;30.7;30.7
76046;BME280;64741;41.730;44.788;2023-07-29T09:40:54;985.3;;;30.7;30.5
76046;BME280;64741;41.730;44.788;2023-07-29T09:45:48;985.3;;;30.7;30.7
76046;BME280;64741;41.730;44.788;2023-07-29T09:50:52;985.3;;;30.7;30.7
76046;BME280;64741;41.730;44.788;2023-07-29T09:55:54;985.2;;;30.7;30.7
76046;BME280;64741;41.730;44.788;2023-07-29T10:00:54;985.2;;;30.7;30.6
76046;BME280;64741;41.730;44.788;2023-07-29T10:05:48;985.1;;;30.8;30.5
76046;BME280;64741;41.730;44.788;2023-07-29T10:10:48;985.1;;;30.8;30.4
76046;BME280;64741;41.730;44.788;2023-07-29T10:15:38;985;;;30.8;30.3
76046;BME280;64741;41.730;44.788;2023-07-29T10:20:44;984.9;;;30.8;30.2
76046;BME280;64741;41.730;44.788;2023-07-29T10:25:55;985;;;30.8;30.2
76046;BME280;64741;41.730;44.788;2023-07-29T10:30:48;984.9;;;30.8;30.3
76046;BME280;64741;41.730;44.788;2023-07-29T10:35:52;984.9;;;30.8;30.5
76046;BME280;64741;41.730;44.788;2023-07-29T10:40:50;984.9;;;30.8;30.8
76046;BME280;64741;41.730;44.788;2023-07-29T10:45:48;984.8;;;30.8;30.9
76046;BME280;64741;41.730;44.788;2023-07-29T10:51:01;984.8;;;30.8;31
76046;BME280;64741;41.730;44.788;2023-07-29T10:55:48;984.7;;;30.8;31
76046;BME280;64741;41.730;44.788;2023-07-29T11:00:54;984.7;;;30.8;30.9
76046;BME280;64741;41.730;44.788;2023-07-29T11:05:48;984.7;;;30.9;30.9
76046;BME280;64741;41.730;44.788;2023-07-29T11:10:57;984.7;;;30.9;30.8
76046;BME280;64741;41.730;44.788;2023-07-29T11:15:48;984.7;;;30.9;30.5
76046;BME280;64741;41.730;44.788;2023-07-29T11:20:50;984.7;;;30.9;30.2
76046;BME280;64741;41.730;44.788;2023-07-29T11:25:52;984.6;;;30.9;29.9
76046;BME280;64741;41.730;44.788;2023-07-29T11:30:52;984.6;;;30.9;29.6
76046;BME280;64741;41.730;44.788;2023-07-29T11:35:54;984.6;;;30.9;29.7
76046;BME280;64741;41.730;44.788;2023-07-29T11:40:56;984.6;;;30.9;29.8
76046;BME280;64741;41.730;44.788;2023-07-29T11:45:52;984.6;;;30.9;30.7
76046;BME280;64741;41.730;44.788;2023-07-29T11:50:53;984.5;;;30.9;31.3
76046;BME280;64741;41.730;44.788;2023-07-29T11:55:32;984.5;;;30.9;31.5
76046;BME280;64741;41.730;44.788;2023-07-29T12:00:48;984.5;;;30.9;32.1
76046;BME280;64741;41.730;44.788;2023-07-29T12:05:52;984.5;;;31;32.5
76046;BME280;64741;41.730;44.788;2023-07-29T12:10:52;984.4;;;31;32.7
76046;BME280;64741;41.730;44.788;2023-07-29T12:15:48;984.4;;;31;32.9
76046;BME280;64741;41.730;44.788;2023-07-29T12:20:36;984.4;;;31;33.1
76046;BME280;64741;41.730;44.788;2023-07-29T12:25:56;984.4;;;31;33.4
76046;BME280;64741;41.730;44.788;2023-07-29T12:30:54;984.4;;;31.1;33.8
76046;BME280;64741;41.730;44.788;2023-07-29T12:35:50;984.3;;;31.1;34.1
76046;BME280;64741;41.730;44.788;2023-07-29T12:40:37;984.3;;;31.1;34.2
76046;BME280;64741;41.730;44.788;2023-07-29T12:45:52;984.3;;;31.1;33.8
76046;BME280;64741;41.730;44.788;2023-07-29T12:50:48;984.3;;;31.1;32.8
76046;BME280;64741;41.730;44.788;2023-07-29T12:55:52;984.3;;;31.1;32.5
76046;BME280;64741;41.730;44.788;2023-07-29T13:00:48;984.2;;;31.1;32.7
76046;BME280;64741;41.730;44.788;2023-07-29T13:05:52;984.2;;;31.1;32.9
76046;BME280;64741;41.730;44.788;2023-07-29T13:10:54;984.1;;;31.1;33.1
76046;BME280;64741;41.730;44.788;2023-07-29T13:15:52;984.1;;;31.2;33.5
76046;BME280;64741;41.730;44.788;2023-07-29T13:20:54;984.1;;;31.2;34.1
76046;BME280;64741;41.730;44.788;2023-07-29T13:25:46;984.1;;;31.2;34.4
76046;BME280;64741;41.730;44.788;2023-07-29T13:30:54;984.1;;;31.2;34.5
76046;BME280;64741;41.730;44.788;2023-07-29T13:35:48;984.1;;;31.2;34.6
76046;BME280;64741;41.730;44.788;2023-07-29T13:40:52;984.1;;;31.2;34.5
76046;BME280;64741;41.730;44.788;2023-07-29T13:45:38;984.1;;;31.2;34.3
76046;BME280;64741;41.730;44.788;2023-07-29T13:50:44;984;;;31.2;33.9
76046;BME280;64741;41.730;44.788;2023-07-29T13:55:52;984;;;31.2;33.5
76046;BME280;64741;41.730;44.788;2023-07-29T14:00:52;984;;;31.2;33.2
76046;BME280;64741;41.730;44.788;2023-07-29T14:05:34;984;;;31.2;32.9
76046;BME280;64741;41.730;44.788;2023-07-29T14:10:46;984;;;31.2;32.6
76046;BME280;64741;41.730;44.788;2023-07-29T14:15:54;984.1;;;31.2;32.4
76046;BME280;64741;41.730;44.788;2023-07-29T14:20:54;984.1;;;31.2;32
76046;BME280;64741;41.730;44.788;2023-07-29T14:25:48;984.1;;;31.2;31.9
76046;BME280;64741;41.730;44.788;2023-07-29T14:30:48;984.1;;;31.2;31.8
76046;BME280;64741;41.730;44.788;2023-07-29T14:35:48;984.1;;;31.2;31.8
76046;BME280;64741;41.730;44.788;2023-07-29T14:40:48;984.2;;;31.2;31.7
76046;BME280;64741;41.730;44.788;2023-07-29T14:45:48;984.2;;;31.2;31.7
76046;BME280;64741;41.730;44.788;2023-07-29T14:50:52;984.2;;;31.2;31.6
76046;BME280;64741;41.730;44.788;2023-07-29T14:55:48;984.2;;;31.2;31.4
76046;BME280;64741;41.730;44.788;2023-07-29T15:00:44;984.2;;;31.2;31.4
76046;BME280;64741;41.730;44.788;2023-07-29T15:05:46;984.3;;;31.2;31.3
76046;BME280;64741;41.730;44.788;2023-07-29T15:10:46;984.3;;;31.2;31.2
76046;BME280;64741;41.730;44.788;2023-07-29T15:15:52;984.4;;;31.2;31.2
76046;BME280;64741;41.730;44.788;2023-07-29T15:20:46;984.5;;;31.2;31.1
76046;BME280;64741;41.730;44.788;2023-07-29T15:25:36;984.5;;;31.2;31.1
76046;BME280;64741;41.730;44.788;2023-07-29T15:30:46;984.5;;;31.2;31
76046;BME280;64741;41.730;44.788;2023-07-29T15:35:46;984.6;;;31.1;31.1
76046;BME280;64741;41.730;44.788;2023-07-29T15:40:46;984.6;;;31.1;31.2
76046;BME280;64741;41.730;44.788;2023-07-29T15:45:44;984.7;;;31.1;31.1
76046;BME280;64741;41.730;44.788;2023-07-29T15:50:50;984.7;;;31.1;31
76046;BME280;64741;41.730;44.788;2023-07-29T15:55:36;984.8;;;31.1;30.9
76046;BME280;64741;41.730;44.788;2023-07-29T16:00:52;984.9;;;31.1;30.9
76046;BME280;64741;41.730;44.788;2023-07-29T16:05:35;985;;;31.1;30.9
76046;BME280;64741;41.730;44.788;2023-07-29T16:10:34;985;;;31.1;31
76046;BME280;64741;41.730;44.788;2023-07-29T16:15:54;985.1;;;31.1;31.1
76046;BME280;64741;41.730;44.788;2023-07-29T16:20:46;985.1;;;31.1;31.2
76046;BME280;64741;41.730;44.788;2023-07-29T16:25:46;985.2;;;31.1;31.1
76046;BME280;64741;41.730;44.788;2023-07-29T16:30:48;985.2;;;31.1;31
76046;BME280;64741;41.730;44.788;2023-07-29T16:35:52;985.3;;;31.1;30.8
76046;BME280;64741;41.730;44.788;2023-07-29T16:40:46;985.4;;;31.1;30.7
76046;BME280;64741;41.730;44.788;2023-07-29T16:45:52;985.4;;;31.1;30.4
76046;BME280;64741;41.730;44.788;2023-07-29T16:50:54;985.5;;;31.1;30.1
76046;BME280;64741;41.730;44.788;2023-07-29T16:55:54;985.5;;;31.1;30
76046;BME280;64741;41.730;44.788;2023-07-29T17:00:48;985.6;;;31.1;29.9
76046;BME280;64741;41.730;44.788;2023-07-29T17:05:46;985.7;;;31.1;29.9
76046;BME280;64741;41.730;44.788;2023-07-29T17:10:54;985.8;;;31;29.9
76046;BME280;64741;41.730;44.788;2023-07-29T17:15:48;985.9;;;31;30
76046;BME280;64741;41.730;44.788;2023-07-29T17:20:52;986;;;31;29.9
76046;BME280;64741;41.730;44.788;2023-07-29T17:25:48;986.1;;;31;30
76046;BME280;64741;41.730;44.788;2023-07-29T17:30:52;986.1;;;31;30.3
76046;BME280;64741;41.730;44.788;2023-07-29T17:35:52;986.2;;;31;31.6
76046;BME280;64741;41.730;44.788;2023-07-29T17:40:50;986.2;;;31.1;31.8
76046;BME280;64741;41.730;44.788;2023-07-29T17:45:54;986.3;;;31.1;31.8
76046;BME280;64741;41.730;44.788;2023-07-29T17:50:46;986.3;;;31.1;32
76046;BME280;64741;41.730;44.788;2023-07-29T17:55:54;986.3;;;31.1;32
76046;BME280;64741;41.730;44.788;2023-07-29T18:00:48;986.4;;;31.1;31.9
76046;BME280;64741;41.730;44.788;2023-07-29T18:05:52;986.4;;;31.1;31.7
76046;BME280;64741;41.730;44.788;2023-07-29T18:10:38;986.5;;;31.1;31.6
76046;BME280;64741;41.730;44.788;2023-07-29T18:15:49;986.6;;;31.1;31.5
76046;BME280;64741;41.730;44.788;2023-07-29T18:20:48;986.6;;;31;31.7
76046;BME280;64741;41.730;44.788;2023-07-29T18:25:53;986.6;;;31.1;31.9
76046;BME280;64741;41.730;44.788;2023-07-29T18:30:54;986.7;;;31.1;31.9
76046;BME280;64741;41.730;44.788;2023-07-29T18:35:48;986.7;;;31.1;31.9
76046;BME280;64741;41.730;44.788;2023-07-29T18:40:52;986.7;;;31.1;31.8
76046;BME280;64741;41.730;44.788;2023-07-29T18:45:54;986.7;;;31.1;31.8
76046;BME280;64741;41.730;44.788;2023-07-29T18:50:54;986.7;;;31.1;31.8
76046;BME280;64741;41.730;44.788;2023-07-29T18:55:48;986.7;;;31.1;31.8
76046;BME280;64741;41.730;44.788;2023-07-29T19:00:48;986.7;;;31.1;31.8
76046;BME280;64741;41.730;44.788;2023-07-29T19:05:53;986.7;;;31.1;31.9
76046;BME280;64741;41.730;44.788;2023-07-29T19:10:48;986.8;;;31;31.9
76046;BME280;64741;41.730;44.788;2023-07-29T19:15:50;986.8;;;31;31.9
76046;BME280;64741;41.730;44.788;2023-07-29T19:20:48;986.8;;;31;32.2
76046;BME280;64741;41.730;44.788;2023-07-29T19:25:20;986.8;;;31;32.2
76046;BME280;64741;41.730;44.788;2023-07-29T19:30:51;986.8;;;31;32.3
76046;BME280;64741;41.730;44.788;2023-07-29T19:35:52;986.8;;;31;32.4
76046;BME280;64741;41.730;44.788;2023-07-29T19:40:54;986.8;;;31;32.5
76046;BME280;64741;41.730;44.788;2023-07-29T19:45:48;986.8;;;31;32.5
76046;BME280;64741;41.730;44.788;2023-07-29T19:50:54;986.9;;;31;32.6
76046;BME280;64741;41.730;44.788;2023-07-29T19:55:48;986.9;;;31;32.7
76046;BME280;64741;41.730;44.788;2023-07-29T20:00:50;986.9;;;30.9;32.7
76046;BME280;64741;41.730;44.788;2023-07-29T20:05:34;986.8;;;31;32.7
76046;BME280;64741;41.730;44.788;2023-07-29T20:10:38;986.8;;;30.9;32.8
76046;BME280;64741;41.730;44.788;2023-07-29T20:15:52;986.8;;;30.9;32.8
76046;BME280;64741;41.730;44.788;2023-07-29T20:20:52;986.8;;;30.9;32.9
76046;BME280;64741;41.730;44.788;2023-07-29T20:25:56;986.9;;;30.9;32.9
76046;BME280;64741;41.730;44.788;2023-07-29T20:30:53;986.9;;;30.9;32.9
76046;BME280;64741;41.730;44.788;2023-07-29T20:35:53;986.9;;;30.9;32.9
76046;BME280;64741;41.730;44.788;2023-07-29T20:40:56;986.9;;;30.9;33
76046;BME280;64741;41.730;44.788;2023-07-29T20:45:50;986.9;;;30.9;33
76046;BME280;64741;41.730;44.788;2023-07-29T20:50:50;986.9;;;30.9;33
76046;BME280;64741;41.730;44.788;2023-07-29T20:55:52;986.9;;;30.9;33
76046;BME280;64741;41.730;44.788;2023-07-29T21:00:53;986.9;;;30.9;33
76046;BME280;64741;41.730;44.788;2023-07-29T21:05:50;986.9;;;30.9;33
76046;BME280;64741;41.730;44.788;2023-07-29T21:10:22;986.8;;;30.8;33.1
76046;BME280;64741;41.730;44.788;2023-07-29T21:15:57;986.8;;;30.8;33.1
76046;BME280;64741;41.730;44.788;2023-07-29T21:20:56;986.8;;;30.8;33.1
76046;BME280;64741;41.730;44.788;2023-07-29T21:25:36;986.9;;;30.8;33
76046;BME280;64741;41.730;44.788;2023-07-29T21:30:50;986.8;;;30.8;33
76046;BME280;64741;41.730;44.788;2023-07-29T21:35:56;986.8;;;30.8;33
76046;BME280;64741;41.730;44.788;2023-07-29T21:40:36;986.7;;;30.8;33.1
76046;BME280;64741;41.730;44.788;2023-07-29T21:45:52;986.6;;;30.8;33
76046;BME280;64741;41.730;44.788;2023-07-29T21:50:51;986.7;;;30.8;33
76046;BME280;64741;41.730;44.788;2023-07-29T21:55:52;986.7;;;30.8;33.2
76046;BME280;64741;41.730;44.788;2023-07-29T22:00:56;986.7;;;30.8;33.2
76046;BME280;64741;41.730;44.788;2023-07-29T22:05:50;986.8;;;30.8;33.2
76046;BME280;64741;41.730;44.788;2023-07-29T22:10:52;986.7;;;30.8;33.2
76046;BME280;64741;41.730;44.788;2023-07-29T22:15:22;986.9;;;30.8;33.2
76046;BME280;64741;41.730;44.788;2023-07-29T22:20:56;986.9;;;30.8;33.3
76046;BME280;64741;41.730;44.788;2023-07-29T22:25:56;986.9;;;30.8;33.3
76046;BME280;64741;41.730;44.788;2023-07-29T22:30:56;986.8;;;30.8;33.3
76046;BME280;64741;41.730;44.788;2023-07-29T22:35:57;986.8;;;30.8;33.4
76046;BME280;64741;41.730;44.788;2023-07-29T22:40:50;986.7;;;30.7;33.3
76046;BME280;64741;41.730;44.788;2023-07-29T22:45:51;986.8;;;30.7;33.3
76046;BME280;64741;41.730;44.788;2023-07-29T22:50:52;986.8;;;30.7;33.2
76046;BME280;64741;41.730;44.788;2023-07-29T22:55:54;986.9;;;30.7;33.2
76046;BME280;64741;41.730;44.788;2023-07-29T23:00:40;986.9;;;30.7;33.3
76046;BME280;64741;41.730;44.788;2023-07-29T23:05:36;986.9;;;30.7;33.4
76046;BME280;64741;41.730;44.788;2023-07-29T23:10:59;986.9;;;30.7;33.5
76046;BME280;64741;41.730;44.788;2023-07-29T23:15:58;986.9;;;30.7;33.5
76046;BME280;64741;41.730;44.788;2023-07-29T23:20:50;986.9;;;30.7;33.6
76046;BME280;64741;41.730;44.788;2023-07-29T23:25:50;986.9;;;30.7;33.5
76046;BME280;64741;41.730;44.788;2023-07-29T23:30:48;986.9;;;30.7;33.5
76046;BME280;64741;41.730;44.788;2023-07-29T23:35:48;986.8;;;30.7;33.5
76046;BME280;64741;41.730;44.788;2023-07-29T23:40:52;986.8;;;30.7;33.6
76046;BME280;64741;41.730;44.788;2023-07-29T23:45:50;986.8;;;30.7;33.6
76046;BME280;64741;41.730;44.788;2023-07-29T23:50:52;986.9;;;30.7;33.6
76046;BME280;64741;41.730;44.788;2023-07-29T23:55:50;986.9;;;30.7;33.6
